Terminal Aerodrome Forecast
Issued by NWS Lake Charles, LA

Home | Current Version | Previous Version | Text Only | Print | Product List | Glossary On
Versions: 1 2 3 4 5 6 7 8 9 10 11 12 13 14 15 16 17
000
FTUS44 KLCH 011100
TAFLFT
TAF
KLFT 011131Z 0112/0212 VRB03KT 3SM BR OVC002
     FM011300 15005KT 5SM -SHRA SCT005 BKN015 OVC040
      TEMPO 0113/0115 3SM TSRA BKN015CB OVC030
     FM011500 15007KT P6SM VCSH SCT015 BKN025
     FM011700 16009KT P6SM VCSH SCT025 BKN050
     FM012300 15006KT P6SM FEW025 SCT100
     FM020900 00000KT 4SM BR FEW008 SCT015=

USA.gov is the U.S. government's official web portal to all federal, state and local government web resources and services.